Time;durP1;ratioP1;P1;durP2;ratioP2;P2;SDS_P1;SDS_P2;PMS_P1;PMS_P2;Temp;Humidity;BMP_temperature;BMP_pressure;BME280_temperature;BME280_humidity;BME280_pressure;Samples;Min_cycle;Max_cycle;Signal;HPM_P1;HPM_P2
2022/02/22 00:00:09;;;;;;;1.23;1.13;;;4.70;99.90;;;;;;5059797;28;20223;-46
2022/02/22 00:02:37;;;;;;;4.35;2.38;;;4.80;99.90;;;;;;5059807;28;20256;-53
2022/02/22 00:05:04;;;;;;;1.40;1.20;;;4.80;99.90;;;;;;5059893;28;20525;-49
2022/02/22 00:07:31;;;;;;;1.50;1.40;;;4.90;99.90;;;;;;5059341;28;20556;-53
2022/02/22 00:09:58;;;;;;;1.45;1.35;;;4.90;99.90;;;;;;5059638;28;20229;-57
2022/02/22 00:12:26;;;;;;;1.88;1.70;;;4.90;99.90;;;;;;5059863;28;20199;-45
2022/02/22 00:14:53;;;;;;;4.55;2.03;;;4.90;99.90;;;;;;5059618;28;20402;-45
2022/02/22 00:17:21;;;;;;;2.17;1.85;;;4.90;99.90;;;;;;5060057;28;20221;-48
2022/02/22 00:19:49;;;;;;;2.00;1.90;;;4.90;99.90;;;;;;5059392;28;20223;-49
2022/02/22 00:22:16;;;;;;;1.20;1.10;;;4.70;99.90;;;;;;5059674;28;20293;-48
2022/02/22 00:24:44;;;;;;;1.13;1.05;;;4.70;99.90;;;;;;5059289;28;20394;-46
2022/02/22 00:27:14;;;;;;;1.05;1.05;;;4.60;99.90;;;;;;5059426;28;20577;-45
2022/02/22 00:29:41;;;;;;;1.88;0.93;;;4.50;99.90;;;;;;5059844;28;20202;-45
2022/02/22 00:32:08;;;;;;;0.77;0.77;;;4.40;99.90;;;;;;5059557;28;20253;-49
2022/02/22 00:34:35;;;;;;;0.90;0.90;;;4.30;99.90;;;;;;5059463;28;20267;-47
2022/02/22 00:37:03;;;;;;;0.77;0.60;;;4.20;99.90;;;;;;5059357;28;20434;-46
2022/02/22 00:39:31;;;;;;;0.75;0.75;;;4.00;99.90;;;;;;5059770;28;20256;-46
2022/02/22 00:41:58;;;;;;;0.77;0.68;;;4.00;99.90;;;;;;5065910;28;20241;-54
2022/02/22 00:44:27;;;;;;;0.70;0.70;;;4.10;99.90;;;;;;5068070;28;20205;-46
2022/02/22 00:46:54;;;;;;;2.17;1.15;;;4.10;99.90;;;;;;5059794;28;20208;-52
2022/02/22 00:49:21;;;;;;;1.13;0.90;;;4.10;99.90;;;;;;5059095;28;20205;-47
2022/02/22 00:51:52;;;;;;;1.00;1.00;;;4.10;99.90;;;;;;5058893;28;20257;-47
2022/02/22 00:54:19;;;;;;;1.45;1.35;;;4.20;99.90;;;;;;5061956;28;20210;-45
2022/02/22 00:56:47;;;;;;;1.10;1.10;;;4.20;99.90;;;;;;5063585;28;20524;-50
2022/02/22 00:59:14;;;;;;;2.15;0.70;;;4.20;99.90;;;;;;5063588;28;20217;-45
2022/02/22 01:01:41;;;;;;;0.90;0.90;;;4.30;99.90;;;;;;5055293;28;20580;-45
2022/02/22 01:04:09;;;;;;;1.52;1.42;;;4.20;99.90;;;;;;5063268;28;20194;-47
2022/02/22 01:06:36;;;;;;;3.20;0.80;;;4.10;99.90;;;;;;5064075;28;20516;-48
2022/02/22 01:09:04;;;;;;;1.23;1.15;;;4.10;99.90;;;;;;5063375;28;20203;-44
2022/02/22 01:11:50;;;;;;;3.50;1.20;;;4.10;99.90;;;;;;5063671;28;20442;-50
2022/02/22 01:14:18;;;;;;;2.70;1.23;;;4.20;99.90;;;;;;5063277;28;20202;-45
2022/02/22 01:16:45;;;;;;;1.38;1.27;;;4.30;99.90;;;;;;5063331;28;20229;-50
2022/02/22 01:19:13;;;;;;;1.45;1.35;;;4.40;99.90;;;;;;5062949;28;20535;-47
2022/02/22 01:21:40;;;;;;;1.15;1.05;;;4.40;99.90;;;;;;5063146;28;20271;-47
2022/02/22 01:24:08;;;;;;;1.83;1.15;;;4.40;99.90;;;;;;5062774;28;20198;-47
2022/02/22 01:26:35;;;;;;;1.90;0.88;;;4.40;99.90;;;;;;5063123;28;20571;-46
2022/02/22 01:29:03;;;;;;;1.95;1.05;;;4.40;99.90;;;;;;5063063;28;20246;-47
2022/02/22 01:31:30;;;;;;;0.88;0.88;;;4.50;99.90;;;;;;5062863;28;20223;-48
2022/02/22 01:33:58;;;;;;;5.28;1.98;;;4.50;99.90;;;;;;5063096;28;20401;-47
2022/02/22 01:36:27;;;;;;;2.88;1.52;;;4.40;99.90;;;;;;5062797;28;20260;-53
2022/02/22 01:38:54;;;;;;;3.67;2.25;;;4.50;99.90;;;;;;5063075;28;20249;-50
2022/02/22 01:41:25;;;;;;;1.40;1.20;;;4.40;99.90;;;;;;5062764;28;20316;-46
2022/02/22 01:43:52;;;;;;;1.88;1.58;;;4.40;99.90;;;;;;5062523;28;20196;-44
2022/02/22 01:46:19;;;;;;;2.28;1.70;;;4.40;99.90;;;;;;5062360;28;20199;-48
2022/02/22 01:48:47;;;;;;;2.33;1.25;;;4.40;99.90;;;;;;5062515;28;20431;-49
2022/02/22 01:51:14;;;;;;;1.42;1.33;;;4.30;99.90;;;;;;5061941;28;20236;-48
2022/02/22 01:53:42;;;;;;;3.25;2.58;;;4.30;99.90;;;;;;5062550;28;20202;-46
2022/02/22 01:56:11;;;;;;;3.30;1.67;;;4.20;99.90;;;;;;5062308;28;20440;-53
2022/02/22 01:58:39;;;;;;;2.88;2.58;;;4.20;99.90;;;;;;5062641;28;20210;-50
2022/02/22 02:01:08;;;;;;;3.90;2.55;;;4.20;99.90;;;;;;5062418;28;20230;-46
2022/02/22 02:03:36;;;;;;;3.72;3.15;;;4.30;99.90;;;;;;5062364;28;20245;-48
2022/02/22 02:06:03;;;;;;;5.78;3.60;;;4.30;99.90;;;;;;5061466;28;20209;-45
2022/02/22 02:08:31;;;;;;;4.50;3.40;;;4.40;99.90;;;;;;5062073;28;20202;-48
2022/02/22 02:11:00;;;;;;;3.35;2.03;;;4.20;99.90;;;;;;5062082;28;20248;-51
2022/02/22 02:13:28;;;;;;;4.60;2.60;;;4.20;99.90;;;;;;5062182;28;20211;-47
2022/02/22 02:15:55;;;;;;;3.42;1.98;;;4.10;99.90;;;;;;5062311;28;20202;-49
2022/02/22 02:18:22;;;;;;;3.83;2.22;;;4.10;99.90;;;;;;5061956;28;20205;-46
2022/02/22 02:20:49;;;;;;;5.47;2.15;;;4.00;99.90;;;;;;5062129;28;20586;-52
2022/02/22 02:23:16;;;;;;;4.63;2.00;;;3.90;99.90;;;;;;5062013;28;20192;-50
2022/02/22 02:25:45;;;;;;;3.38;3.08;;;3.90;99.90;;;;;;5062151;28;20206;-49
2022/02/22 02:28:12;;;;;;;2.10;1.65;;;4.10;99.90;;;;;;5062104;28;20199;-47
2022/02/22 02:30:40;;;;;;;6.15;2.00;;;4.10;99.90;;;;;;5061630;28;20230;-47
2022/02/22 02:33:08;;;;;;;3.83;2.15;;;4.20;99.90;;;;;;5061930;28;20501;-51
2022/02/22 02:35:35;;;;;;;3.25;1.80;;;4.20;99.90;;;;;;5061801;28;20452;-49
2022/02/22 02:38:02;;;;;;;2.20;1.70;;;4.20;99.90;;;;;;5061897;28;20206;-54
2022/02/22 02:40:40;;;;;;;1.95;1.52;;;4.10;99.90;;;;;;5061897;28;20289;-48
2022/02/22 02:43:07;;;;;;;2.40;2.17;;;4.20;99.90;;;;;;5061923;28;20200;-47
2022/02/22 02:45:35;;;;;;;3.15;2.30;;;4.20;99.90;;;;;;5062127;28;20216;-48
2022/02/22 02:48:03;;;;;;;3.83;1.40;;;4.10;99.90;;;;;;5061665;28;20432;-53
2022/02/22 02:50:30;;;;;;;3.50;1.95;;;4.10;99.90;;;;;;5061716;28;20230;-46
2022/02/22 02:52:57;;;;;;;4.43;1.50;;;4.10;99.90;;;;;;5061607;28;20210;-48
2022/02/22 02:55:25;;;;;;;2.97;1.50;;;4.10;99.90;;;;;;5061628;28;20233;-47
2022/02/22 02:57:52;;;;;;;6.18;2.22;;;4.20;99.90;;;;;;5061334;28;20208;-48
2022/02/22 03:00:19;;;;;;;5.22;1.58;;;4.20;99.90;;;;;;5060789;28;20230;-52
2022/02/22 03:02:46;;;;;;;4.70;2.63;;;4.20;99.90;;;;;;5061099;28;20198;-47
2022/02/22 03:05:14;;;;;;;1.65;1.40;;;4.20;99.90;;;;;;5061534;28;20280;-49
2022/02/22 03:07:42;;;;;;;2.90;1.83;;;4.20;99.90;;;;;;5061153;28;20385;-45
2022/02/22 03:10:09;;;;;;;4.65;1.50;;;4.20;99.90;;;;;;5061104;28;20198;-46
2022/02/22 03:12:36;;;;;;;2.88;1.80;;;4.20;99.90;;;;;;5060987;28;20203;-48
2022/02/22 03:15:04;;;;;;;1.98;1.35;;;4.20;99.90;;;;;;5061390;28;20198;-49
2022/02/22 03:17:31;;;;;;;1.30;1.20;;;4.20;99.90;;;;;;5060473;28;20202;-48
2022/02/22 03:19:58;;;;;;;2.45;1.10;;;4.20;99.90;;;;;;5061185;28;20214;-46
2022/02/22 03:22:25;;;;;;;4.03;1.83;;;4.10;99.90;;;;;;5061351;28;20253;-53
2022/02/22 03:24:53;;;;;;;4.47;2.08;;;4.10;99.90;;;;;;5063708;28;20221;-45
2022/02/22 03:27:20;;;;;;;5.53;2.13;;;4.20;99.90;;;;;;5064704;28;20199;-47
2022/02/22 03:29:47;;;;;;;3.83;1.45;;;4.10;99.90;;;;;;5065326;28;20385;-50
2022/02/22 03:32:14;;;;;;;3.72;2.00;;;4.10;99.90;;;;;;5060780;28;20544;-48
2022/02/22 03:34:41;;;;;;;1.40;1.30;;;4.10;99.90;;;;;;5060906;28;20203;-45
2022/02/22 03:37:10;;;;;;;2.65;2.33;;;4.10;99.90;;;;;;5060631;28;20513;-49
2022/02/22 03:39:37;;;;;;;2.88;2.00;;;4.20;99.90;;;;;;5060373;28;20206;-49
2022/02/22 03:42:04;;;;;;;2.10;1.70;;;4.30;99.90;;;;;;5060658;28;20238;-48
2022/02/22 03:44:32;;;;;;;2.70;2.05;;;4.30;99.90;;;;;;5060891;28;20206;-44
2022/02/22 03:46:59;;;;;;;4.50;1.50;;;4.30;99.90;;;;;;5060364;28;20206;-52
2022/02/22 03:49:26;;;;;;;7.97;2.45;;;4.30;99.90;;;;;;5060490;28;20237;-46
2022/02/22 03:51:53;;;;;;;6.25;3.10;;;4.40;99.90;;;;;;5060047;28;20275;-49
2022/02/22 03:54:20;;;;;;;2.85;1.85;;;4.30;99.90;;;;;;5060621;28;20248;-49
2022/02/22 03:56:48;;;;;;;5.70;1.73;;;4.40;99.90;;;;;;5060226;28;20202;-52
2022/02/22 03:59:15;;;;;;;1.65;1.55;;;4.40;99.90;;;;;;5067328;28;20272;-52
2022/02/22 04:01:43;;;;;;;3.45;2.10;;;4.30;99.90;;;;;;5067150;28;20276;-49
2022/02/22 04:04:10;;;;;;;4.55;1.90;;;4.40;99.90;;;;;;5060530;28;20198;-49
2022/02/22 04:06:38;;;;;;;3.78;2.03;;;4.20;99.90;;;;;;5059466;28;20244;-46
2022/02/22 04:09:06;;;;;;;2.17;1.80;;;4.20;99.90;;;;;;5060228;28;20400;-53
2022/02/22 04:11:33;;;;;;;3.03;1.23;;;4.30;99.90;;;;;;5060009;28;20256;-53
2022/02/22 04:14:00;;;;;;;2.08;1.50;;;4.30;99.90;;;;;;5059558;28;20248;-48
2022/02/22 04:16:27;;;;;;;2.00;1.60;;;4.10;99.90;;;;;;5059940;28;20380;-49
2022/02/22 04:18:55;;;;;;;3.75;2.03;;;3.90;99.90;;;;;;5059657;28;20325;-48
2022/02/22 04:21:22;;;;;;;1.83;1.50;;;3.90;99.90;;;;;;5059661;28;20238;-45
2022/02/22 04:23:50;;;;;;;1.45;0.90;;;3.90;99.90;;;;;;5042315;28;20205;-47
2022/02/22 04:26:18;;;;;;;2.45;1.50;;;3.90;99.90;;;;;;5059762;28;20197;-49
2022/02/22 04:28:45;;;;;;;1.40;1.30;;;3.90;99.90;;;;;;5059091;28;20198;-49
2022/02/22 04:31:13;;;;;;;3.35;1.48;;;3.90;99.90;;;;;;5059493;28;20242;-48
2022/02/22 04:33:40;;;;;;;2.65;2.05;;;4.00;99.90;;;;;;5059725;28;20268;-48
2022/02/22 04:36:09;;;;;;;4.65;1.73;;;4.10;99.90;;;;;;5059772;28;20206;-45
2022/02/22 04:38:36;;;;;;;3.25;1.73;;;4.30;99.90;;;;;;5059972;28;20210;-51
2022/02/22 04:41:03;;;;;;;1.98;1.10;;;4.40;99.90;;;;;;5059354;28;20491;-49
2022/02/22 04:43:31;;;;;;;3.67;1.98;;;4.40;99.90;;;;;;5059579;28;20207;-48
2022/02/22 04:45:59;;;;;;;2.83;1.95;;;4.50;99.90;;;;;;5059264;28;20225;-51
2022/02/22 04:48:26;;;;;;;2.55;1.65;;;4.60;99.90;;;;;;5059304;28;20637;-51
2022/02/22 04:50:55;;;;;;;2.80;1.60;;;4.70;99.90;;;;;;5059358;28;20222;-52
2022/02/22 04:53:23;;;;;;;4.10;1.85;;;4.70;99.90;;;;;;5059407;28;20191;-47
2022/02/22 04:55:50;;;;;;;3.28;1.65;;;4.70;99.90;;;;;;5059194;28;20204;-50
2022/02/22 04:58:18;;;;;;;2.85;1.75;;;4.80;99.90;;;;;;5059085;28;20230;-47
2022/02/22 05:00:47;;;;;;;3.47;2.10;;;4.80;99.90;;;;;;5058622;28;20244;-46
2022/02/22 05:03:14;;;;;;;2.42;1.80;;;4.80;99.90;;;;;;5058853;28;20247;-44
2022/02/22 05:05:42;;;;;;;6.07;1.70;;;4.80;99.90;;;;;;5059533;28;20195;-46
2022/02/22 05:08:09;;;;;;;2.25;2.13;;;4.60;99.90;;;;;;5050911;28;20277;-45
2022/02/22 05:10:37;;;;;;;7.13;2.55;;;4.60;99.90;;;;;;5059541;28;20218;-50
2022/02/22 05:13:04;;;;;;;3.03;2.22;;;4.60;99.90;;;;;;5059141;28;20273;-46
2022/02/22 05:15:33;;;;;;;2.30;2.10;;;4.70;99.90;;;;;;5059565;28;20402;-48
2022/02/22 05:18:03;;;;;;;2.55;2.00;;;4.60;99.90;;;;;;5058666;28;20203;-45
2022/02/22 05:20:32;;;;;;;3.75;2.70;;;4.60;99.90;;;;;;5059165;28;20292;-46
2022/02/22 05:22:59;;;;;;;2.35;2.05;;;4.50;99.90;;;;;;5058607;28;20236;-49
2022/02/22 05:25:26;;;;;;;4.65;2.22;;;4.50;99.90;;;;;;5059454;28;20232;-51
2022/02/22 05:27:54;;;;;;;8.55;2.55;;;4.50;99.90;;;;;;5059307;28;20207;-49
2022/02/22 05:30:21;;;;;;;5.43;2.50;;;4.60;99.90;;;;;;5058411;28;20286;-50
2022/02/22 05:32:48;;;;;;;2.13;1.90;;;4.70;99.90;;;;;;5058997;28;20209;-46
2022/02/22 05:35:15;;;;;;;3.78;2.88;;;4.60;99.90;;;;;;5058485;28;20214;-48
2022/02/22 05:37:43;;;;;;;3.65;2.60;;;4.50;99.90;;;;;;5059430;28;20222;-48
2022/02/22 05:40:12;;;;;;;8.07;2.67;;;4.60;99.90;;;;;;5059051;28;20203;-49
2022/02/22 05:42:39;;;;;;;3.15;2.40;;;4.60;99.90;;;;;;5062449;28;20219;-50
2022/02/22 05:45:07;;;;;;;2.25;2.10;;;4.60;99.90;;;;;;5062113;28;20264;-50
2022/02/22 05:47:34;;;;;;;7.32;2.75;;;4.50;99.90;;;;;;5062519;28;20199;-49
2022/02/22 05:50:02;;;;;;;5.80;2.53;;;4.60;99.90;;;;;;5061827;28;20264;-49
2022/02/22 05:52:28;;;;;;;6.40;2.42;;;4.70;99.90;;;;;;5062371;28;20210;-50
2022/02/22 05:54:56;;;;;;;3.38;2.83;;;4.60;99.90;;;;;;5057906;28;20265;-54
2022/02/22 05:57:24;;;;;;;3.00;2.00;;;4.70;99.90;;;;;;5055231;28;20207;-46
2022/02/22 05:59:52;;;;;;;3.08;2.33;;;4.70;99.90;;;;;;5062277;28;20463;-51
2022/02/22 06:02:19;;;;;;;3.05;2.00;;;4.70;99.90;;;;;;5061971;28;20455;-45
2022/02/22 06:04:46;;;;;;;2.75;2.05;;;4.80;99.90;;;;;;5054458;28;20513;-46
2022/02/22 06:07:20;;;;;;;3.17;2.70;;;4.90;99.90;;;;;;5056476;28;20218;-45
2022/02/22 06:09:48;;;;;;;5.88;2.80;;;4.80;99.90;;;;;;5061488;28;20272;-47
2022/02/22 06:12:17;;;;;;;3.03;2.10;;;4.90;99.90;;;;;;5061425;28;20294;-48
2022/02/22 06:14:45;;;;;;;1.80;1.60;;;5.00;99.90;;;;;;5061375;28;20240;-46
2022/02/22 06:17:12;;;;;;;8.02;2.25;;;4.90;99.90;;;;;;5061775;28;20222;-47
2022/02/22 06:19:39;;;;;;;4.25;2.10;;;4.90;99.90;;;;;;5061936;28;20229;-48
2022/02/22 06:22:07;;;;;;;1.98;1.88;;;4.90;99.90;;;;;;5061871;28;20226;-46
2022/02/22 06:24:34;;;;;;;5.18;2.30;;;4.90;99.90;;;;;;5061608;28;20551;-45
2022/02/22 06:27:02;;;;;;;2.03;1.77;;;4.80;99.90;;;;;;5058818;28;20210;-50
2022/02/22 06:29:30;;;;;;;5.10;2.25;;;4.90;99.90;;;;;;5061023;28;20562;-47
2022/02/22 06:31:58;;;;;;;2.40;1.45;;;5.20;99.90;;;;;;5061716;28;20219;-47
2022/02/22 06:34:25;;;;;;;3.78;1.13;;;5.30;99.90;;;;;;5061426;28;20354;-48
2022/02/22 06:36:52;;;;;;;3.05;1.55;;;5.30;99.90;;;;;;5061572;28;20269;-46
2022/02/22 06:39:20;;;;;;;4.20;1.73;;;5.50;99.90;;;;;;5061054;28;20202;-48
2022/02/22 06:41:47;;;;;;;6.10;1.80;;;5.60;99.90;;;;;;5060899;28;20258;-50
2022/02/22 06:44:15;;;;;;;1.35;1.25;;;5.60;99.90;;;;;;5061037;28;20203;-46
2022/02/22 06:46:43;;;;;;;3.03;1.95;;;5.50;99.90;;;;;;5061168;28;20227;-45
2022/02/22 06:49:10;;;;;;;4.03;1.27;;;5.40;99.90;;;;;;5061234;28;20368;-50
2022/02/22 06:51:37;;;;;;;2.78;1.80;;;5.40;99.90;;;;;;5060553;28;20289;-47
2022/02/22 06:54:04;;;;;;;4.63;1.55;;;5.40;99.90;;;;;;5059418;28;20269;-48
2022/02/22 06:56:31;;;;;;;2.45;1.20;;;5.50;99.90;;;;;;5061552;28;20266;-46
2022/02/22 06:58:58;;;;;;;1.42;1.30;;;5.60;99.90;;;;;;5061062;28;20242;-53
2022/02/22 07:01:26;;;;;;;2.67;1.40;;;5.60;99.90;;;;;;5060004;28;20588;-50
2022/02/22 07:03:53;;;;;;;3.30;1.88;;;5.70;99.90;;;;;;5060528;28;20265;-49
2022/02/22 07:06:21;;;;;;;2.30;1.42;;;5.80;99.90;;;;;;5060794;28;20195;-53
2022/02/22 07:08:48;;;;;;;4.38;1.80;;;6.10;99.90;;;;;;5060465;28;20204;-52
2022/02/22 07:11:15;;;;;;;5.22;1.98;;;6.30;99.90;;;;;;5062455;28;20215;-54
2022/02/22 07:13:42;;;;;;;2.75;1.67;;;6.30;99.90;;;;;;5061692;28;20241;-50
2022/02/22 07:16:13;;;;;;;1.60;1.50;;;6.20;99.90;;;;;;5066406;28;20199;-50
2022/02/22 07:18:40;;;;;;;2.42;1.90;;;6.30;99.90;;;;;;5067579;28;20218;-49
2022/02/22 07:21:07;;;;;;;6.40;2.13;;;6.30;99.90;;;;;;5061882;28;20216;-51
2022/02/22 07:23:36;;;;;;;2.08;1.92;;;6.20;99.90;;;;;;5060527;28;20227;-51
2022/02/22 07:26:04;;;;;;;3.78;2.35;;;6.10;99.90;;;;;;5060372;28;20199;-47
2022/02/22 07:28:31;;;;;;;2.33;1.83;;;6.10;99.90;;;;;;5060718;28;20443;-47
2022/02/22 07:30:59;;;;;;;4.88;2.55;;;6.00;99.90;;;;;;5060245;28;20281;-51
2022/02/22 07:33:26;;;;;;;5.00;1.92;;;6.20;99.90;;;;;;5060045;28;20222;-52
2022/02/22 07:35:53;;;;;;;2.10;1.90;;;6.40;99.90;;;;;;5059903;28;20207;-51
2022/02/22 07:38:20;;;;;;;5.25;2.03;;;6.40;99.90;;;;;;5060001;28;20239;-47
2022/02/22 07:40:48;;;;;;;5.30;1.90;;;6.80;99.90;;;;;;5059772;28;20223;-47
2022/02/22 07:43:15;;;;;;;5.13;2.83;;;7.20;99.90;;;;;;5059479;28;20565;-45
2022/02/22 07:45:42;;;;;;;3.92;2.53;;;7.50;99.90;;;;;;5059705;28;20338;-45
2022/02/22 07:48:09;;;;;;;2.63;2.00;;;7.40;99.90;;;;;;5051524;28;20203;-49
2022/02/22 07:50:38;;;;;;;2.15;1.30;;;7.10;99.90;;;;;;5058741;28;20228;-47
2022/02/22 07:53:06;;;;;;;3.35;2.17;;;7.10;99.90;;;;;;5059689;28;20196;-48
2022/02/22 07:55:34;;;;;;;3.58;2.30;;;7.10;99.90;;;;;;5060307;28;20427;-46
2022/02/22 07:58:01;;;;;;;3.05;2.47;;;7.10;99.90;;;;;;5059460;28;20254;-47
2022/02/22 08:00:29;;;;;;;6.50;3.10;;;7.10;99.90;;;;;;5060030;28;20230;-49
2022/02/22 08:02:57;;;;;;;1.70;1.60;;;7.10;99.90;;;;;;5059480;28;20227;-46
2022/02/22 08:05:24;;;;;;;4.80;1.75;;;7.10;99.90;;;;;;5061613;28;20195;-48
2022/02/22 08:07:52;;;;;;;1.60;1.27;;;7.10;99.90;;;;;;5062690;28;20229;-46
2022/02/22 08:10:39;;;;;;;2.65;1.75;;;7.00;99.90;;;;;;5062737;28;20266;-47
2022/02/22 08:13:06;;;;;;;2.95;2.10;;;7.10;99.90;;;;;;5065116;28;20207;-49
2022/02/22 08:15:34;;;;;;;1.67;1.58;;;7.20;99.90;;;;;;5060057;28;20207;-52
2022/02/22 08:18:01;;;;;;;1.35;1.25;;;7.20;99.90;;;;;;5059584;28;20199;-51
2022/02/22 08:20:29;;;;;;;1.70;1.40;;;7.20;99.90;;;;;;5041664;28;20215;-48
2022/02/22 08:22:57;;;;;;;4.70;2.20;;;7.20;99.90;;;;;;5059132;28;20448;-49
2022/02/22 08:25:24;;;;;;;1.80;1.35;;;7.10;99.90;;;;;;5058821;28;20290;-51
2022/02/22 08:27:51;;;;;;;4.40;3.05;;;6.90;99.90;;;;;;5059968;28;20266;-49
2022/02/22 08:30:19;;;;;;;5.20;2.35;;;6.80;99.90;;;;;;5059029;28;20412;-48
2022/02/22 08:32:47;;;;;;;2.17;1.92;;;6.50;99.90;;;;;;5059608;28;20230;-52
2022/02/22 08:35:15;;;;;;;4.10;1.85;;;6.50;99.90;;;;;;5059307;28;20391;-50
2022/02/22 08:37:43;;;;;;;2.53;1.85;;;6.40;99.90;;;;;;5058883;28;20199;-45
2022/02/22 08:40:10;;;;;;;3.28;2.38;;;6.40;99.90;;;;;;5059072;28;20199;-48
2022/02/22 08:42:38;;;;;;;4.13;2.38;;;6.10;99.90;;;;;;5058878;28;20250;-50
2022/02/22 08:45:21;;;;;;;1.95;1.85;;;6.00;99.90;;;;;;5059147;28;20196;-47
2022/02/22 08:47:48;;;;;;;6.35;2.88;;;5.90;99.90;;;;;;5058857;28;20197;-54
2022/02/22 08:50:15;;;;;;;6.43;2.22;;;5.90;99.90;;;;;;5058509;28;20222;-49
2022/02/22 08:52:43;;;;;;;9.88;2.65;;;5.80;99.90;;;;;;5058566;28;20200;-46
2022/02/22 08:55:11;;;;;;;3.20;2.22;;;5.80;99.90;;;;;;5058864;28;20222;-49
2022/02/22 08:57:39;;;;;;;2.75;2.20;;;5.80;99.90;;;;;;5059001;28;20556;-44
2022/02/22 09:00:10;;;;;;;2.45;1.80;;;5.90;99.90;;;;;;5040781;28;20245;-58
2022/02/22 09:02:39;;;;;;;6.13;2.53;;;5.70;99.90;;;;;;5058913;28;20223;-51
2022/02/22 09:05:09;;;;;;;7.88;1.60;;;5.50;99.90;;;;;;5058446;28;20202;-49
2022/02/22 09:07:37;;;;;;;12.60;3.47;;;5.40;99.90;;;;;;5058896;28;20324;-49
2022/02/22 09:10:07;;;;;;;4.10;2.35;;;5.40;99.90;;;;;;5058795;28;20202;-48
2022/02/22 09:12:34;;;;;;;4.30;2.40;;;5.60;99.90;;;;;;5058668;28;20296;-49
2022/02/22 09:15:05;;;;;;;6.00;2.20;;;5.60;99.90;;;;;;5059382;28;20203;-47
2022/02/22 09:17:32;;;;;;;7.15;2.70;;;5.60;99.90;;;;;;5063133;28;20645;-49
2022/02/22 09:20:02;;;;;;;3.80;1.80;;;5.60;99.90;;;;;;5063219;28;20301;-54
2022/02/22 09:22:30;;;;;;;5.88;1.88;;;5.60;99.90;;;;;;5062906;28;20353;-46
2022/02/22 09:24:57;;;;;;;8.57;2.22;;;5.50;99.90;;;;;;5062798;28;20245;-52
2022/02/22 09:27:24;;;;;;;13.65;3.20;;;5.60;99.90;;;;;;5062875;28;20207;-45
2022/02/22 09:29:52;;;;;;;8.90;2.38;;;5.70;99.90;;;;;;5063101;28;20282;-48
2022/02/22 09:32:19;;;;;;;5.07;1.85;;;5.80;99.90;;;;;;5062672;28;20387;-46
2022/02/22 09:34:46;;;;;;;9.23;2.22;;;5.80;99.90;;;;;;5062742;28;20209;-45
2022/02/22 09:37:15;;;;;;;3.85;2.95;;;5.80;99.90;;;;;;5062057;28;20286;-45
2022/02/22 09:39:42;;;;;;;8.43;3.58;;;5.90;99.90;;;;;;5062441;28;20219;-46
2022/02/22 09:42:11;;;;;;;5.70;2.20;;;6.00;99.90;;;;;;5062032;28;20223;-49
2022/02/22 09:44:40;;;;;;;5.90;1.55;;;6.10;99.90;;;;;;5061946;28;20569;-48
2022/02/22 09:47:08;;;;;;;6.82;3.28;;;6.00;99.90;;;;;;5061731;28;20249;-48
2022/02/22 09:49:36;;;;;;;3.58;1.98;;;6.00;99.90;;;;;;5061898;28;20211;-48
2022/02/22 09:52:04;;;;;;;8.15;3.38;;;6.10;99.90;;;;;;5061432;28;20241;-49
2022/02/22 09:54:33;;;;;;;2.88;1.90;;;6.20;99.90;;;;;;5061762;28;20532;-45
2022/02/22 09:57:00;;;;;;;5.65;1.70;;;6.30;99.90;;;;;;5061967;28;20246;-51
2022/02/22 09:59:28;;;;;;;7.43;1.85;;;6.30;99.90;;;;;;5061870;28;20196;-51
2022/02/22 10:01:57;;;;;;;8.38;3.13;;;6.30;99.90;;;;;;5061904;28;20226;-46
2022/02/22 10:04:25;;;;;;;8.13;2.28;;;6.50;99.90;;;;;;5061702;28;20207;-48
2022/02/22 10:07:02;;;;;;;5.72;1.60;;;6.50;99.90;;;;;;5062067;28;20231;-50
2022/02/22 10:09:30;;;;;;;5.20;2.20;;;6.30;99.90;;;;;;5061934;28;20238;-47
2022/02/22 10:11:58;;;;;;;6.10;2.17;;;6.20;99.90;;;;;;5061853;28;20220;-51
2022/02/22 10:14:28;;;;;;;4.93;1.60;;;6.30;99.90;;;;;;5061957;28;20271;-46
2022/02/22 10:16:57;;;;;;;4.20;1.40;;;6.50;99.90;;;;;;5061551;28;20207;-49
2022/02/22 10:19:28;;;;;;;2.38;1.85;;;6.60;99.90;;;;;;5061709;28;20199;-44
2022/02/22 10:21:57;;;;;;;6.30;2.00;;;6.70;99.90;;;;;;5061080;28;20237;-48
2022/02/22 10:24:30;;;;;;;13.38;2.67;;;6.90;99.90;;;;;;5061419;28;20374;-46
2022/02/22 10:27:06;;;;;;;7.85;3.63;;;6.90;99.90;;;;;;5061283;28;20310;-52
2022/02/22 10:29:35;;;;;;;9.20;3.85;;;7.00;99.90;;;;;;5061328;28;20387;-51
2022/02/22 10:32:11;;;;;;;6.40;2.42;;;7.00;99.90;;;;;;5061385;28;20282;-53
2022/02/22 10:34:38;;;;;;;12.02;3.72;;;7.10;99.90;;;;;;5061463;28;20490;-47
2022/02/22 10:37:07;;;;;;;15.02;3.50;;;7.20;99.90;;;;;;5070944;28;20206;-55
2022/02/22 10:39:35;;;;;;;7.53;2.80;;;7.40;99.90;;;;;;5061629;28;20195;-46
2022/02/22 10:42:04;;;;;;;11.82;2.33;;;7.60;99.90;;;;;;5061221;28;20225;-46
2022/02/22 10:44:36;;;;;;;4.65;1.55;;;7.50;99.90;;;;;;5061248;28;20239;-48
2022/02/22 10:47:24;;;;;;;5.20;3.15;;;7.40;99.90;;;;;;5061292;28;20196;-52
2022/02/22 10:49:52;;;;;;;2.28;1.88;;;7.40;99.90;;;;;;5078396;28;20202;-46
2022/02/22 10:52:29;;;;;;;3.53;1.33;;;7.30;99.90;;;;;;5080410;28;20221;-45
2022/02/22 10:55:01;;;;;;;8.80;2.47;;;7.30;99.90;;;;;;5080850;28;20370;-52
2022/02/22 10:57:31;;;;;;;4.45;1.73;;;7.10;99.90;;;;;;5081738;28;20193;-46
2022/02/22 10:59:59;;;;;;;2.08;1.10;;;7.00;99.90;;;;;;5081191;28;20203;-49
2022/02/22 11:02:31;;;;;;;7.78;1.77;;;7.00;99.90;;;;;;5080400;28;20572;-47
2022/02/22 11:05:15;;;;;;;13.18;4.10;;;7.10;99.90;;;;;;5080783;28;20206;-52
2022/02/22 11:07:52;;;;;;;9.20;2.42;;;7.50;99.90;;;;;;5080649;28;20194;-46
2022/02/22 11:10:24;;;;;;;10.60;3.08;;;7.80;99.90;;;;;;5080355;28;20261;-45
2022/02/22 11:12:55;;;;;;;11.82;3.70;;;8.00;99.90;;;;;;5080330;28;20253;-45
2022/02/22 11:15:36;;;;;;;7.25;3.60;;;7.70;99.90;;;;;;5080628;28;20205;-46
2022/02/22 11:18:16;;;;;;;9.77;2.42;;;7.60;99.90;;;;;;5080509;28;20198;-54
2022/02/22 11:20:44;;;;;;;14.32;4.13;;;8.00;99.90;;;;;;5080388;28;20224;-48
2022/02/22 11:23:23;;;;;;;6.93;2.40;;;8.10;99.90;;;;;;5079542;28;20214;-44
2022/02/22 11:25:52;;;;;;;7.65;2.13;;;8.10;99.90;;;;;;5080452;28;20194;-53
2022/02/22 11:28:20;;;;;;;4.03;2.63;;;8.10;99.90;;;;;;5079870;28;20560;-45
2022/02/22 11:30:47;;;;;;;8.40;2.72;;;8.20;99.90;;;;;;5080133;28;20222;-46
2022/02/22 11:33:19;;;;;;;5.72;2.20;;;7.90;99.90;;;;;;5080016;28;20420;-47
2022/02/22 11:35:55;;;;;;;4.80;1.98;;;7.90;99.90;;;;;;5079787;28;20222;-51
2022/02/22 11:38:47;;;;;;;6.18;1.70;;;7.90;99.90;;;;;;5078921;28;20252;-49
2022/02/22 11:41:34;;;;;;;8.35;2.60;;;8.00;99.90;;;;;;5079584;28;20219;-51
2022/02/22 11:44:04;;;;;;;5.78;2.63;;;8.20;99.90;;;;;;5079332;28;20257;-54
2022/02/22 11:46:52;;;;;;;3.50;1.45;;;8.60;99.90;;;;;;5079786;28;20195;-50
2022/02/22 11:49:32;;;;;;;2.78;1.73;;;8.70;99.90;;;;;;5080145;28;20195;-47
2022/02/22 11:52:11;;;;;;;2.45;1.65;;;8.70;99.90;;;;;;5079042;28;20294;-51
2022/02/22 11:54:42;;;;;;;8.23;2.55;;;8.80;99.90;;;;;;5079985;28;20267;-52
2022/02/22 11:57:18;;;;;;;4.40;2.75;;;8.90;99.90;;;;;;5079299;28;20199;-46
2022/02/22 11:59:52;;;;;;;6.53;1.45;;;9.00;99.90;;;;;;5079847;28;20268;-45
2022/02/22 12:02:28;;;;;;;6.38;1.92;;;8.90;99.90;;;;;;5078921;28;20220;-49
2022/02/22 12:04:59;;;;;;;5.70;2.40;;;8.70;99.90;;;;;;5079739;28;20400;-49
2022/02/22 12:07:29;;;;;;;4.40;1.23;;;8.50;99.90;;;;;;5079865;28;20196;-51
2022/02/22 12:09:59;;;;;;;3.53;1.92;;;8.40;99.90;;;;;;5079400;28;20184;-53
2022/02/22 12:12:26;;;;;;;2.55;1.60;;;8.30;99.90;;;;;;5079588;28;20226;-51
2022/02/22 12:14:57;;;;;;;16.00;2.97;;;8.10;99.90;;;;;;5079231;28;20236;-51
2022/02/22 12:17:26;;;;;;;8.43;2.60;;;8.00;99.90;;;;;;5080968;28;20205;-46
2022/02/22 12:19:54;;;;;;;4.75;1.75;;;8.00;99.90;;;;;;5081531;28;20205;-46
2022/02/22 12:22:24;;;;;;;5.20;1.50;;;7.90;99.90;;;;;;5080242;28;20245;-47
2022/02/22 12:25:03;;;;;;;6.05;1.52;;;7.60;99.90;;;;;;5079844;28;20237;-45
2022/02/22 12:27:33;;;;;;;4.72;1.70;;;7.50;99.90;;;;;;5079621;28;20201;-48
2022/02/22 12:30:01;;;;;;;4.90;3.08;;;7.50;99.90;;;;;;5079329;28;20505;-53
2022/02/22 12:32:35;;;;;;;5.20;2.50;;;7.50;99.90;;;;;;5079599;28;20198;-50
2022/02/22 12:35:06;;;;;;;5.15;1.42;;;7.60;99.90;;;;;;5079126;28;20202;-50
2022/02/22 12:37:54;;;;;;;4.10;1.15;;;7.70;99.90;;;;;;5079591;28;20203;-48
2022/02/22 12:40:28;;;;;;;2.60;1.40;;;7.70;99.90;;;;;;5078890;28;20230;-49
2022/02/22 12:43:09;;;;;;;3.30;1.58;;;7.50;99.90;;;;;;5078747;28;20226;-48
2022/02/22 12:45:43;;;;;;;3.88;1.77;;;7.40;99.90;;;;;;5079110;28;20401;-54
2022/02/22 12:48:11;;;;;;;8.80;2.30;;;7.30;99.90;;;;;;5078297;28;20233;-46
2022/02/22 12:50:38;;;;;;;7.32;1.95;;;7.40;99.90;;;;;;5078908;28;20214;-46
2022/02/22 12:53:06;;;;;;;8.25;2.30;;;7.50;99.90;;;;;;5078562;28;20198;-47
2022/02/22 12:55:46;;;;;;;1.63;1.52;;;7.40;99.90;;;;;;5078984;28;20203;-46
2022/02/22 12:58:13;;;;;;;3.83;1.40;;;7.20;99.90;;;;;;5078405;28;20288;-46
2022/02/22 13:00:41;;;;;;;3.53;2.17;;;7.10;99.90;;;;;;5078745;28;20557;-51
2022/02/22 13:03:13;;;;;;;2.25;2.05;;;7.00;99.90;;;;;;5078510;28;20436;-48
2022/02/22 13:05:43;;;;;;;4.47;1.48;;;7.10;99.90;;;;;;5078984;28;20420;-48